createdAt,value
2023-04-29T00:01:01.094Z,64.18
2023-04-29T00:03:32.450Z,64.56
2023-04-29T00:06:01.050Z,64.53
2023-04-29T00:08:29.153Z,64.13
2023-04-29T00:10:57.023Z,64.74
2023-04-29T00:13:26.421Z,64.58
2023-04-29T00:15:54.375Z,65.30
2023-04-29T00:18:22.297Z,65.69
2023-04-29T00:20:50.147Z,65.19
2023-04-29T00:23:18.066Z,64.30
2023-04-29T00:25:45.921Z,65.38
2023-04-29T00:28:13.809Z,66.43
2023-04-29T00:30:43.109Z,65.96
2023-04-29T00:33:11.368Z,65.35
2023-04-29T00:35:39.461Z,65.10
2023-04-29T00:38:07.351Z,64.84
2023-04-29T00:40:35.951Z,64.95
2023-04-29T00:43:03.848Z,64.83
2023-04-29T00:45:32.019Z,64.77
2023-04-29T00:48:01.312Z,64.67
2023-04-29T00:50:29.380Z,65.12
2023-04-29T00:52:57.342Z,65.89
2023-04-29T00:55:26.486Z,65.25
2023-04-29T00:57:54.377Z,65.09
2023-04-29T01:00:22.409Z,65.14
2023-04-29T01:02:51.251Z,65.07
2023-04-29T01:05:20.618Z,65.34
2023-04-29T01:07:59.838Z,66.94
2023-04-29T01:10:30.311Z,68.75
2023-04-29T01:13:07.848Z,71.54
2023-04-29T01:15:42.693Z,73.69
2023-04-29T01:18:17.097Z,74.71
2023-04-29T01:20:47.822Z,77.14
2023-04-29T01:23:15.835Z,75.89
2023-04-29T01:25:45.254Z,76.75
2023-04-29T01:28:36.061Z,75.72
2023-04-29T01:31:10.042Z,76.47
2023-04-29T01:33:45.705Z,75.48
2023-04-29T01:36:22.377Z,77.30
2023-04-29T01:38:57.622Z,76.04
2023-04-29T01:41:36.218Z,76.65
2023-04-29T01:44:18.018Z,78.05
2023-04-29T01:46:51.706Z,76.93
2023-04-29T01:49:22.209Z,78.49
2023-04-29T01:51:50.281Z,78.71
2023-04-29T01:54:18.442Z,80.53
2023-04-29T01:56:48.248Z,79.58
2023-04-29T01:59:23.210Z,79.41
2023-04-29T02:02:06.060Z,79.48
2023-04-29T02:04:36.395Z,79.97
2023-04-29T02:07:04.614Z,79.94
2023-04-29T02:09:32.961Z,80.84
2023-04-29T02:12:09.785Z,80.45
2023-04-29T02:14:38.012Z,80.92
2023-04-29T02:17:06.820Z,80.82
2023-04-29T02:19:36.168Z,80.86
2023-04-29T02:22:04.394Z,80.88
2023-04-29T02:24:32.274Z,81.42
2023-04-29T02:27:00.173Z,83.13
2023-04-29T02:29:31.072Z,81.43
2023-04-29T02:31:59.860Z,82.32
2023-04-29T02:34:27.919Z,82.31
2023-04-29T02:36:55.771Z,82.15
2023-04-29T02:39:23.614Z,83.62
2023-04-29T02:41:57.108Z,82.63
2023-04-29T02:44:25.043Z,83.89
2023-04-29T02:46:54.248Z,83.10
2023-04-29T02:49:22.189Z,81.69
2023-04-29T02:51:51.115Z,81.01
2023-04-29T02:54:19.022Z,81.28
2023-04-29T02:56:47.130Z,81.23
2023-04-29T02:59:14.977Z,83.88
2023-04-29T03:01:43.354Z,84.55
2023-04-29T03:04:15.029Z,82.43
2023-04-29T03:06:43.653Z,83.13
2023-04-29T03:09:13.349Z,83.98
2023-04-29T03:11:41.385Z,83.33
2023-04-29T03:14:09.313Z,83.60
2023-04-29T03:16:37.360Z,85.35
2023-04-29T03:19:06.720Z,84.00
2023-04-29T03:21:35.959Z,84.80
2023-04-29T03:24:03.985Z,85.01
2023-04-29T03:26:35.047Z,84.90
2023-04-29T03:29:04.879Z,84.52
2023-04-29T03:31:34.861Z,85.35
2023-04-29T03:34:02.746Z,84.67
2023-04-29T03:36:33.356Z,84.54
2023-04-29T03:39:06.245Z,84.68
2023-04-29T03:41:34.136Z,85.53
2023-04-29T03:44:02.103Z,86.36
2023-04-29T03:46:31.036Z,85.57
2023-04-29T03:48:59.132Z,85.97
2023-04-29T03:51:28.071Z,86.47
2023-04-29T03:54:06.343Z,86.68
2023-04-29T03:56:34.359Z,86.65
2023-04-29T03:59:02.266Z,85.29
2023-04-29T04:01:31.347Z,86.43
2023-04-29T04:03:59.385Z,86.39
2023-04-29T04:06:27.345Z,86.56
2023-04-29T04:08:55.396Z,86.71
2023-04-29T04:11:29.597Z,86.77
2023-04-29T04:14:00.640Z,86.66
2023-04-29T04:16:28.840Z,87.12
2023-04-29T04:18:56.786Z,86.88
2023-04-29T04:21:25.222Z,86.79
2023-04-29T04:24:00.359Z,87.75
2023-04-29T04:26:31.294Z,87.21
2023-04-29T04:29:11.362Z,87.28
2023-04-29T04:31:47.313Z,87.21
2023-04-29T04:34:16.888Z,87.71
2023-04-29T04:36:46.941Z,86.78
2023-04-29T04:39:15.034Z,86.55
2023-04-29T04:41:44.414Z,89.03
2023-04-29T04:44:13.322Z,88.59
2023-04-29T04:46:57.072Z,88.28
2023-04-29T04:49:37.516Z,88.07
2023-04-29T04:52:05.945Z,87.34
2023-04-29T04:54:34.332Z,87.31
2023-04-29T04:57:10.077Z,87.95
2023-04-29T04:59:37.973Z,88.75
2023-04-29T05:02:05.878Z,88.77
2023-04-29T05:04:33.818Z,89.12
2023-04-29T05:07:01.739Z,89.47
2023-04-29T05:09:35.529Z,88.53
2023-04-29T05:12:03.388Z,88.66
2023-04-29T05:14:34.887Z,89.48
2023-04-29T05:17:02.848Z,89.35
2023-04-29T05:19:30.832Z,89.17
2023-04-29T05:21:58.858Z,89.12
2023-04-29T05:24:27.242Z,89.61
2023-04-29T05:26:55.078Z,89.72
2023-04-29T05:29:22.995Z,89.78
2023-04-29T05:31:58.394Z,90.71
2023-04-29T05:34:26.792Z,90.28
2023-04-29T05:36:54.683Z,89.91
2023-04-29T05:39:23.097Z,89.67
2023-04-29T05:41:59.657Z,89.39
2023-04-29T05:44:36.075Z,88.92
2023-04-29T05:47:05.299Z,89.49
2023-04-29T05:49:33.338Z,89.90
2023-04-29T05:52:06.375Z,90.02
2023-04-29T05:54:39.330Z,89.63
2023-04-29T05:57:08.202Z,90.29
2023-04-29T05:59:36.037Z,88.61
2023-04-29T06:02:07.741Z,88.48
2023-04-29T06:04:37.928Z,88.47
2023-04-29T06:07:26.648Z,89.89
2023-04-29T06:10:12.611Z,90.57
2023-04-29T06:12:43.170Z,89.77
2023-04-29T06:15:12.097Z,89.66
2023-04-29T06:17:41.325Z,90.58
2023-04-29T06:20:10.622Z,90.92
2023-04-29T06:22:40.330Z,91.22
2023-04-29T06:25:09.438Z,91.46
2023-04-29T06:27:49.317Z,91.22
2023-04-29T06:30:19.197Z,90.48
2023-04-29T06:32:48.491Z,89.67
2023-04-29T06:35:16.963Z,89.77
2023-04-29T06:37:50.973Z,90.05
2023-04-29T06:40:44.226Z,90.19
2023-04-29T06:43:26.984Z,90.65
2023-04-29T06:46:34.207Z,89.79
2023-04-29T06:49:07.297Z,89.82
2023-04-29T06:51:36.960Z,90.13
2023-04-29T06:54:05.051Z,90.74
2023-04-29T06:56:32.920Z,88.81
2023-04-29T06:59:00.837Z,88.97
2023-04-29T07:01:28.979Z,89.56
2023-04-29T07:03:56.984Z,88.46
2023-04-29T07:06:26.913Z,88.85
2023-04-29T07:08:56.857Z,89.32
2023-04-29T07:11:26.948Z,89.05
2023-04-29T07:13:54.861Z,87.85
2023-04-29T07:16:26.380Z,91.22
2023-04-29T07:18:54.431Z,89.66
2023-04-29T07:21:22.398Z,88.97
2023-04-29T07:23:51.670Z,89.98
2023-04-29T07:26:19.761Z,89.47
2023-04-29T07:28:47.605Z,89.78
2023-04-29T07:31:16.721Z,88.89
2023-04-29T07:33:46.366Z,89.07
2023-04-29T07:36:14.355Z,87.81
2023-04-29T07:38:42.197Z,87.23
2023-04-29T07:41:11.447Z,88.28
2023-04-29T07:43:42.208Z,89.32
2023-04-29T07:46:10.626Z,88.35
2023-04-29T07:48:39.426Z,87.28
2023-04-29T07:51:08.778Z,87.80
2023-04-29T07:53:36.952Z,86.62
2023-04-29T07:56:07.415Z,87.50
2023-04-29T07:58:37.022Z,88.48
2023-04-29T08:01:09.154Z,88.68
2023-04-29T08:03:40.615Z,88.13
2023-04-29T08:06:09.972Z,87.95
2023-04-29T08:08:38.017Z,87.94
2023-04-29T08:11:06.741Z,86.91
2023-04-29T08:13:36.032Z,87.87
2023-04-29T08:16:03.968Z,88.44
2023-04-29T08:18:31.961Z,90.50
2023-04-29T08:20:59.889Z,88.92
2023-04-29T08:23:27.797Z,89.21
2023-04-29T08:25:56.019Z,89.34
2023-04-29T08:28:24.053Z,88.11
2023-04-29T08:30:53.268Z,87.09
2023-04-29T08:33:21.260Z,88.04
2023-04-29T08:35:49.887Z,86.49
2023-04-29T08:38:17.722Z,86.26
2023-04-29T08:40:47.725Z,87.35
2023-04-29T08:43:15.826Z,86.85
2023-04-29T08:45:44.411Z,88.31
2023-04-29T08:48:14.438Z,86.31
2023-04-29T08:50:43.350Z,89.41
2023-04-29T08:53:12.961Z,88.25
2023-04-29T08:55:45.162Z,87.38
2023-04-29T08:58:14.171Z,86.94
2023-04-29T09:00:44.093Z,87.84
2023-04-29T09:03:21.056Z,87.25
2023-04-29T09:05:53.968Z,88.07
2023-04-29T09:08:23.924Z,86.21
2023-04-29T09:10:52.780Z,86.46
2023-04-29T09:13:28.084Z,86.66
2023-04-29T09:15:56.176Z,86.48
2023-04-29T09:18:44.818Z,87.42
2023-04-29T09:21:19.677Z,85.22
2023-04-29T09:23:50.738Z,87.21
2023-04-29T09:26:18.804Z,84.71
2023-04-29T09:28:47.747Z,86.37
2023-04-29T09:31:15.869Z,84.78
2023-04-29T09:33:55.647Z,85.14
2023-04-29T09:36:37.714Z,85.11
2023-04-29T09:39:11.236Z,86.54
2023-04-29T09:41:45.000Z,86.36
2023-04-29T09:44:12.884Z,85.86
2023-04-29T09:46:40.870Z,86.79
2023-04-29T09:49:26.114Z,87.41
2023-04-29T09:51:55.230Z,86.31
2023-04-29T09:54:24.082Z,86.42
2023-04-29T09:56:53.319Z,86.59
2023-04-29T09:59:22.119Z,85.12
2023-04-29T10:01:51.494Z,86.65
2023-04-29T10:04:20.728Z,83.54
2023-04-29T10:06:52.292Z,81.07
2023-04-29T10:09:21.373Z,79.97
2023-04-29T10:11:50.759Z,83.63
2023-04-29T10:14:20.065Z,81.27
2023-04-29T10:16:50.921Z,83.59
2023-04-29T10:19:26.383Z,83.23
2023-04-29T10:21:59.732Z,82.94
2023-04-29T10:24:27.861Z,82.52
2023-04-29T10:26:58.701Z,83.94
2023-04-29T10:29:29.583Z,81.78
2023-04-29T10:31:59.887Z,83.68
2023-04-29T10:34:29.418Z,83.30
2023-04-29T10:36:59.447Z,82.79
2023-04-29T10:39:37.424Z,82.62
2023-04-29T10:42:07.374Z,80.68
2023-04-29T10:45:16.922Z,79.86
2023-04-29T10:48:18.851Z,79.72
2023-04-29T10:51:05.957Z,80.24
2023-04-29T10:53:35.632Z,81.21
2023-04-29T10:56:11.172Z,81.21
2023-04-29T10:58:42.476Z,78.37
2023-04-29T11:01:12.900Z,80.37
2023-04-29T11:03:58.444Z,80.18
2023-04-29T11:06:40.172Z,79.08
2023-04-29T11:09:12.045Z,76.52
2023-04-29T11:11:58.030Z,76.68
2023-04-29T11:14:27.760Z,75.42
2023-04-29T11:16:58.953Z,76.05
2023-04-29T11:19:31.722Z,77.02
2023-04-29T11:22:13.625Z,75.06
2023-04-29T11:24:53.719Z,73.49
2023-04-29T11:27:25.462Z,76.21
2023-04-29T11:29:58.375Z,73.98
2023-04-29T11:32:26.994Z,73.46
2023-04-29T11:34:55.289Z,71.79
2023-04-29T11:37:25.172Z,72.39
2023-04-29T11:40:01.045Z,70.91
2023-04-29T11:42:28.984Z,71.90
2023-04-29T11:44:59.423Z,71.97
2023-04-29T11:47:29.509Z,72.23
2023-04-29T11:50:04.435Z,69.91
2023-04-29T11:52:32.608Z,69.51
2023-04-29T11:55:01.891Z,70.86
2023-04-29T11:57:29.934Z,69.39
2023-04-29T11:59:59.027Z,69.55
2023-04-29T12:02:30.912Z,69.93
2023-04-29T12:05:01.020Z,69.23
2023-04-29T12:07:29.575Z,67.93
2023-04-29T12:09:57.877Z,68.35
2023-04-29T12:12:28.425Z,69.34
2023-04-29T12:14:56.948Z,69.39
2023-04-29T12:17:25.700Z,70.58
2023-04-29T12:19:53.712Z,69.59
2023-04-29T12:22:21.741Z,71.16
2023-04-29T12:24:50.824Z,72.66
2023-04-29T12:27:19.070Z,70.59
2023-04-29T12:29:48.419Z,71.22
2023-04-29T12:32:18.609Z,72.53
2023-04-29T12:34:47.324Z,71.66
2023-04-29T12:37:16.604Z,70.67
2023-04-29T12:39:45.582Z,69.23
2023-04-29T12:42:17.094Z,68.46
2023-04-29T12:44:48.227Z,70.30
2023-04-29T12:47:17.577Z,69.16
2023-04-29T12:49:46.555Z,68.46
2023-04-29T12:52:14.582Z,67.37
2023-04-29T12:54:43.655Z,67.96
2023-04-29T12:57:12.401Z,66.18
2023-04-29T12:59:41.293Z,66.91
2023-04-29T13:02:10.881Z,66.24
2023-04-29T13:04:40.121Z,64.16
2023-04-29T13:07:08.269Z,66.51
2023-04-29T13:09:38.092Z,63.40
2023-04-29T13:12:09.546Z,64.73
2023-04-29T13:14:37.598Z,63.74
2023-04-29T13:17:06.353Z,65.69
2023-04-29T13:19:50.181Z,62.96
2023-04-29T13:22:19.368Z,65.06
2023-04-29T13:24:47.517Z,65.68
2023-04-29T13:27:15.384Z,65.20
2023-04-29T13:29:43.229Z,63.90
2023-04-29T13:32:11.448Z,61.62
2023-04-29T13:34:43.225Z,64.45
2023-04-29T13:37:11.542Z,62.85
2023-04-29T13:39:39.772Z,61.56
2023-04-29T13:42:08.944Z,59.86
2023-04-29T13:44:49.745Z,59.43
2023-04-29T13:47:25.715Z,60.09
2023-04-29T13:50:16.912Z,57.06
2023-04-29T13:56:07.253Z,61.84
2023-04-29T13:58:43.368Z,58.23
2023-04-29T14:03:20.618Z,59.02
2023-04-29T14:05:50.016Z,59.75
2023-04-29T14:08:17.869Z,58.22
2023-04-29T14:10:45.702Z,62.02
2023-04-29T14:13:13.554Z,60.29
2023-04-29T14:15:41.669Z,61.61
2023-04-29T14:18:10.652Z,58.42
2023-04-29T14:20:39.237Z,58.61
2023-04-29T14:23:08.465Z,60.26
2023-04-29T14:25:36.355Z,61.21
2023-04-29T14:28:04.345Z,59.98
2023-04-29T14:30:32.233Z,58.67
2023-04-29T14:33:00.142Z,60.54
2023-04-29T14:35:27.979Z,59.93
2023-04-29T14:37:55.954Z,58.34
2023-04-29T14:40:25.676Z,60.08
2023-04-29T14:42:53.556Z,58.59
2023-04-29T14:45:21.401Z,56.42
2023-04-29T14:47:49.259Z,57.15
2023-04-29T14:50:17.759Z,55.64
2023-04-29T14:52:45.919Z,56.29
2023-04-29T14:55:13.796Z,55.34
2023-04-29T14:57:43.051Z,55.16
2023-04-29T15:00:12.197Z,55.30
2023-04-29T15:02:40.093Z,52.50
2023-04-29T15:05:08.464Z,52.22
2023-04-29T15:07:36.413Z,53.20
2023-04-29T15:10:06.627Z,54.24
2023-04-29T15:12:34.595Z,54.30
2023-04-29T15:15:04.871Z,55.15
2023-04-29T15:17:32.746Z,54.42
2023-04-29T15:20:00.625Z,54.29
2023-04-29T15:22:28.524Z,54.23
2023-04-29T15:24:56.456Z,54.05
2023-04-29T15:27:24.586Z,52.51
2023-04-29T15:29:54.430Z,54.90
2023-04-29T15:32:24.674Z,55.07
2023-04-29T15:34:52.709Z,55.37
2023-04-29T15:37:21.626Z,54.27
2023-04-29T15:39:50.551Z,53.81
2023-04-29T15:42:18.420Z,53.82
2023-04-29T15:44:46.369Z,55.66
2023-04-29T15:47:14.417Z,55.60
2023-04-29T15:49:44.602Z,54.48
2023-04-29T15:52:12.478Z,54.44
2023-04-29T15:54:41.014Z,54.15
2023-04-29T15:57:08.895Z,55.05
2023-04-29T15:59:36.813Z,54.03
2023-04-29T16:02:10.327Z,54.45
2023-04-29T16:04:38.345Z,54.58
2023-04-29T16:07:07.828Z,54.18
2023-04-29T16:09:36.494Z,54.93
2023-04-29T16:12:04.672Z,54.79
2023-04-29T16:14:32.766Z,54.80
2023-04-29T16:17:01.589Z,54.44
2023-04-29T16:19:29.523Z,54.99
2023-04-29T16:21:57.400Z,55.21
2023-04-29T16:24:26.786Z,55.59
2023-04-29T16:26:54.626Z,55.39
2023-04-29T16:29:22.540Z,55.89
2023-04-29T16:31:50.760Z,55.62
2023-04-29T16:34:18.764Z,56.25
2023-04-29T16:36:46.683Z,55.78
2023-04-29T16:39:14.587Z,55.12
2023-04-29T16:41:43.785Z,55.46
2023-04-29T16:44:11.684Z,55.92
2023-04-29T16:46:39.769Z,54.45
2023-04-29T16:49:07.893Z,53.93
2023-04-29T16:51:36.050Z,54.43
2023-04-29T16:54:04.036Z,53.13
2023-04-29T16:56:31.924Z,53.81
2023-04-29T16:59:01.140Z,52.43
2023-04-29T17:01:29.315Z,50.51
2023-04-29T17:03:57.383Z,49.88
2023-04-29T17:06:25.644Z,48.36
2023-04-29T17:08:53.719Z,46.17
2023-04-29T17:11:21.605Z,47.49
2023-04-29T17:13:50.406Z,47.19
2023-04-29T17:16:19.837Z,47.08
2023-04-29T17:18:47.832Z,46.30
2023-04-29T17:21:15.701Z,46.55
2023-04-29T17:23:43.552Z,47.50
2023-04-29T17:26:11.494Z,47.02
2023-04-29T17:28:39.412Z,47.12
2023-04-29T17:31:07.344Z,46.85
2023-04-29T17:33:39.522Z,46.78
2023-04-29T17:36:07.870Z,45.55
2023-04-29T17:38:35.928Z,46.41
2023-04-29T17:41:04.022Z,44.65
2023-04-29T17:43:35.320Z,45.32
2023-04-29T17:46:03.728Z,44.56
2023-04-29T17:48:32.460Z,46.09
2023-04-29T17:51:01.849Z,45.92
2023-04-29T17:53:30.020Z,47.73
2023-04-29T17:55:57.942Z,47.67
2023-04-29T17:58:28.748Z,47.80
2023-04-29T18:00:57.050Z,48.48
2023-04-29T18:03:27.272Z,46.35
2023-04-29T18:05:55.420Z,48.14
2023-04-29T18:08:24.886Z,49.00
2023-04-29T18:10:52.865Z,47.89
2023-04-29T18:13:20.785Z,48.21
2023-04-29T18:15:48.782Z,48.84
2023-04-29T18:18:16.657Z,48.24
2023-04-29T18:20:44.918Z,47.67
2023-04-29T18:23:14.005Z,46.67
2023-04-29T18:25:43.560Z,47.04
2023-04-29T18:28:23.980Z,48.05
2023-04-29T18:30:53.126Z,46.53
2023-04-29T18:33:21.450Z,47.85
2023-04-29T18:35:49.363Z,47.74
2023-04-29T18:38:17.468Z,48.01
2023-04-29T18:40:46.937Z,47.84
2023-04-29T18:43:18.003Z,48.76
2023-04-29T18:45:46.562Z,48.72
2023-04-29T18:48:15.065Z,48.26
2023-04-29T18:50:43.202Z,47.70
2023-04-29T18:53:11.237Z,48.32
2023-04-29T18:55:39.192Z,48.43
2023-04-29T18:58:09.295Z,48.96
2023-04-29T19:00:37.284Z,48.97
2023-04-29T19:03:05.804Z,49.09
2023-04-29T19:05:33.724Z,49.32
2023-04-29T19:08:01.555Z,49.51
2023-04-29T19:10:29.456Z,49.65
2023-04-29T19:12:57.381Z,48.81
2023-04-29T19:15:28.044Z,48.59
2023-04-29T19:17:56.206Z,49.03
2023-04-29T19:20:24.111Z,49.48
2023-04-29T19:22:52.090Z,50.56
2023-04-29T19:25:20.234Z,49.76
2023-04-29T19:27:48.977Z,51.34
2023-04-29T19:30:17.006Z,51.36
2023-04-29T19:32:47.644Z,49.49
2023-04-29T19:35:15.622Z,50.17
2023-04-29T19:37:44.224Z,50.63
2023-04-29T19:40:12.796Z,50.63
2023-04-29T19:42:40.955Z,49.66
2023-04-29T19:45:10.194Z,51.08
2023-04-29T19:47:38.115Z,50.24
2023-04-29T19:50:07.940Z,51.07
2023-04-29T19:52:35.875Z,51.03
2023-04-29T19:55:04.858Z,52.36
2023-04-29T19:57:33.109Z,51.73
2023-04-29T20:00:01.452Z,52.20
2023-04-29T20:02:29.450Z,51.73
2023-04-29T20:04:57.386Z,50.72
2023-04-29T20:07:26.641Z,51.54
2023-04-29T20:09:55.019Z,50.32
2023-04-29T20:12:23.267Z,51.09
2023-04-29T20:14:51.098Z,51.99
2023-04-29T20:17:18.991Z,51.10
2023-04-29T20:19:46.824Z,49.78
2023-04-29T20:22:14.766Z,51.05
2023-04-29T20:24:44.717Z,50.93
2023-04-29T20:27:12.697Z,51.86
2023-04-29T20:29:40.554Z,51.78
2023-04-29T20:32:08.718Z,51.81
2023-04-29T20:34:37.889Z,50.34
2023-04-29T20:37:06.929Z,50.68
2023-04-29T20:39:35.191Z,51.44
2023-04-29T20:42:05.357Z,51.86
2023-04-29T20:44:34.014Z,51.51
2023-04-29T20:47:01.922Z,52.51
2023-04-29T20:49:29.836Z,51.91
2023-04-29T20:51:58.756Z,52.09
2023-04-29T20:54:26.702Z,52.16
2023-04-29T20:56:54.573Z,52.80
2023-04-29T20:59:23.798Z,51.96
2023-04-29T21:01:51.803Z,52.63
2023-04-29T21:04:21.058Z,53.89
2023-04-29T21:06:50.651Z,54.27
2023-04-29T21:09:19.232Z,53.64
2023-04-29T21:11:47.104Z,54.03
2023-04-29T21:14:15.287Z,54.54
2023-04-29T21:16:44.485Z,54.46
2023-04-29T21:19:12.349Z,54.91
2023-04-29T21:21:40.221Z,54.17
2023-04-29T21:24:08.112Z,55.48
2023-04-29T21:26:35.951Z,55.70
2023-04-29T21:29:04.312Z,55.18
2023-04-29T21:31:32.431Z,55.22
2023-04-29T21:34:01.791Z,55.64
2023-04-29T21:36:29.701Z,55.36
2023-04-29T21:38:57.589Z,56.13
2023-04-29T21:41:27.437Z,56.32
2023-04-29T21:43:57.495Z,55.67
2023-04-29T21:46:26.217Z,56.34
2023-04-29T21:48:54.316Z,55.33
2023-04-29T21:51:23.703Z,55.06
2023-04-29T21:53:52.136Z,55.38
2023-04-29T21:56:21.705Z,54.87
2023-04-29T21:58:49.657Z,57.11
2023-04-29T22:01:27.603Z,55.42
2023-04-29T22:03:57.067Z,55.95
2023-04-29T22:06:26.714Z,57.02
2023-04-29T22:08:54.673Z,57.46
2023-04-29T22:11:22.618Z,57.51
2023-04-29T22:13:50.574Z,56.60
2023-04-29T22:16:19.261Z,56.35
2023-04-29T22:18:48.219Z,54.36
2023-04-29T22:21:16.175Z,57.15
2023-04-29T22:23:45.776Z,58.08
2023-04-29T22:26:13.761Z,56.47
2023-04-29T22:28:41.993Z,57.24
2023-04-29T22:31:10.025Z,55.84
2023-04-29T22:33:37.904Z,56.13
2023-04-29T22:36:05.968Z,55.72
2023-04-29T22:38:34.967Z,55.02
2023-04-29T22:41:04.368Z,54.67
2023-04-29T22:43:32.268Z,53.43
2023-04-29T22:46:00.291Z,54.00
2023-04-29T22:48:28.621Z,55.90
2023-04-29T22:50:59.139Z,56.28
2023-04-29T22:53:27.122Z,55.45
2023-04-29T22:55:56.909Z,56.01
2023-04-29T22:58:27.090Z,56.12
2023-04-29T23:00:57.081Z,56.30
2023-04-29T23:03:25.918Z,56.27
2023-04-29T23:05:58.079Z,55.66
2023-04-29T23:08:26.090Z,57.50
2023-04-29T23:10:54.430Z,55.81
2023-04-29T23:13:22.322Z,55.62
2023-04-29T23:15:52.271Z,56.39
2023-04-29T23:18:20.252Z,56.17
2023-04-29T23:20:48.573Z,56.22
2023-04-29T23:23:16.495Z,54.61
2023-04-29T23:25:45.290Z,55.91
2023-04-29T23:28:13.246Z,56.43
2023-04-29T23:30:41.137Z,54.31
2023-04-29T23:33:10.379Z,54.11
2023-04-29T23:35:38.224Z,54.64
2023-04-29T23:38:06.168Z,54.00
2023-04-29T23:40:34.173Z,55.70
2023-04-29T23:43:02.015Z,55.26
2023-04-29T23:45:29.859Z,55.00
2023-04-29T23:47:57.767Z,55.24
2023-04-29T23:50:27.224Z,55.28
2023-04-29T23:52:55.096Z,56.08
2023-04-29T23:55:23.044Z,55.44
2023-04-29T23:57:50.898Z,57.17
